createdAt,value
2019-04-23T00:04:28.656Z,58.25
2019-04-23T00:09:39.007Z,58.28
2019-04-23T00:15:03.339Z,58.17
2019-04-23T00:19:53.681Z,58.19
2019-04-23T00:30:20.273Z,57.80
2019-04-23T00:35:07.613Z,57.93
2019-04-23T00:40:22.589Z,58.13
2019-04-23T00:45:24.483Z,58.20
2019-04-23T00:50:21.370Z,58.50
2019-04-23T00:55:22.815Z,58.47
2019-04-23T01:00:33.693Z,58.91
2019-04-23T01:05:30.970Z,59.08
2019-04-23T01:11:04.665Z,59.21
2019-04-23T01:16:07.270Z,59.02
2019-04-23T01:20:54.144Z,59.55
2019-04-23T01:26:13.304Z,59.21
2019-04-23T01:36:29.735Z,59.50
2019-04-23T01:41:33.705Z,59.60
2019-04-23T01:46:43.870Z,59.49
2019-04-23T01:56:45.426Z,59.44
2019-04-23T02:01:50.263Z,59.46
2019-04-23T02:06:53.840Z,59.21
2019-04-23T02:11:57.943Z,59.29
2019-04-23T02:17:00.159Z,59.02
2019-04-23T02:22:21.673Z,58.82
2019-04-23T02:27:25.438Z,58.63
2019-04-23T02:32:34.005Z,58.61
2019-04-23T02:37:45.625Z,58.59
2019-04-23T02:42:55.871Z,58.77
2019-04-23T02:47:48.509Z,58.68
2019-04-23T02:57:41.532Z,57.95
2019-04-23T03:07:53.286Z,57.87
2019-04-23T03:18:39.635Z,58.25
2019-04-23T03:23:44.840Z,58.48
2019-04-23T03:28:55.741Z,58.29
2019-04-23T03:43:46.910Z,58.24
2019-04-23T03:54:24.417Z,58.57
2019-04-23T03:59:12.548Z,58.77
2019-04-23T04:19:29.354Z,58.64
2019-04-23T04:24:30.682Z,58.81
2019-04-23T04:29:45.003Z,58.79
2019-04-23T04:39:33.574Z,58.58
2019-04-23T04:44:47.344Z,58.09
2019-04-23T04:54:30.887Z,56.81
2019-04-23T05:05:31.376Z,56.93
2019-04-23T05:10:21.273Z,55.93
2019-04-23T05:20:05.084Z,54.30
2019-04-23T05:25:01.535Z,54.65
2019-04-23T05:35:28.737Z,53.91
2019-04-23T05:40:32.208Z,52.94
2019-04-23T05:45:21.625Z,52.60
2019-04-23T05:50:35.712Z,52.86
2019-04-23T05:55:27.198Z,51.97
2019-04-23T06:00:40.003Z,51.89
2019-04-23T06:05:41.517Z,48.51
2019-04-23T06:10:49.654Z,49.88
2019-04-23T06:15:46.619Z,50.74
2019-04-23T06:20:55.874Z,50.16
2019-04-23T06:26:08.078Z,50.46
2019-04-23T06:31:03.041Z,49.87
2019-04-23T06:36:05.644Z,49.17
2019-04-23T06:41:13.110Z,48.64
2019-04-23T06:46:13.525Z,48.16
2019-04-23T06:51:21.785Z,48.84
2019-04-23T07:01:19.227Z,48.23
2019-04-23T07:06:29.894Z,47.96
2019-04-23T07:16:34.862Z,48.15
2019-04-23T07:21:39.125Z,48.69
2019-04-23T07:26:40.730Z,47.73
2019-04-23T07:31:48.338Z,47.06
2019-04-23T07:36:48.382Z,48.35
2019-04-23T07:42:16.838Z,47.68
2019-04-23T07:47:40.100Z,47.46
2019-04-23T07:52:56.806Z,47.64
2019-04-23T07:57:57.015Z,47.24
2019-04-23T08:03:01.197Z,47.69
2019-04-23T08:13:08.576Z,46.60
2019-04-23T08:18:07.204Z,46.93
2019-04-23T08:23:17.809Z,47.68
2019-04-23T08:28:38.186Z,47.43
2019-04-23T08:33:23.458Z,46.42
2019-04-23T08:38:35.860Z,45.80
2019-04-23T08:43:42.692Z,47.70
2019-04-23T08:48:47.616Z,46.81
2019-04-23T08:53:46.434Z,46.73
2019-04-23T08:59:09.448Z,45.87
2019-04-23T09:03:46.306Z,47.07
2019-04-23T09:09:15.446Z,46.75
2019-04-23T09:13:55.757Z,45.49
2019-04-23T09:19:10.931Z,45.73
2019-04-23T09:24:03.446Z,45.55
2019-04-23T09:29:14.763Z,45.21
2019-04-23T09:34:43.291Z,45.00
2019-04-23T09:40:20.497Z,45.35
2019-04-23T09:45:46.447Z,45.37
2019-04-23T09:55:42.636Z,44.16
2019-04-23T10:00:59.079Z,44.21
2019-04-23T10:05:39.057Z,44.85
2019-04-23T10:10:30.245Z,44.78
2019-04-23T10:15:37.182Z,44.70
2019-04-23T10:20:36.415Z,43.67
2019-04-23T10:25:40.181Z,44.99
2019-04-23T10:30:42.677Z,44.90
2019-04-23T10:35:53.090Z,44.43
2019-04-23T10:40:50.181Z,45.07
2019-04-23T10:46:32.580Z,44.42
2019-04-23T10:51:51.096Z,44.00
2019-04-23T10:56:55.282Z,44.85
2019-04-23T11:02:15.632Z,43.70
2019-04-23T11:07:19.122Z,43.93
2019-04-23T11:12:24.297Z,43.96
2019-04-23T11:17:26.457Z,44.03
2019-04-23T11:27:28.415Z,41.83
2019-04-23T11:42:42.754Z,42.85
2019-04-23T11:48:13.884Z,41.11
2019-04-23T11:52:51.585Z,40.97
2019-04-23T11:58:02.727Z,42.17
2019-04-23T12:03:10.193Z,42.10
2019-04-23T13:05:12.667Z,42.09
2019-04-23T13:10:30.158Z,42.17
2019-04-23T13:15:34.317Z,42.04
2019-04-23T13:20:47.923Z,42.69
2019-04-23T13:25:57.248Z,41.81
2019-04-23T13:41:20.053Z,41.92
2019-04-23T13:46:28.890Z,41.99
2019-04-23T13:57:05.381Z,43.07
2019-04-23T14:06:52.048Z,42.44
2019-04-23T14:11:45.147Z,42.58
2019-04-23T14:17:15.294Z,42.01
2019-04-23T14:22:44.272Z,40.83
2019-04-23T14:27:26.431Z,41.90
2019-04-23T14:32:29.477Z,41.11
2019-04-23T14:37:29.488Z,41.80
2019-04-23T14:43:03.469Z,41.62
2019-04-23T14:47:54.635Z,41.75
2019-04-23T14:52:57.180Z,41.47
2019-04-23T14:58:17.670Z,42.20
2019-04-23T15:08:18.390Z,43.42
2019-04-23T15:13:21.247Z,42.05
2019-04-23T15:18:37.934Z,42.69
2019-04-23T15:28:15.042Z,42.28
2019-04-23T15:33:54.969Z,42.67
2019-04-23T15:38:53.427Z,42.59
2019-04-23T15:43:57.041Z,42.85
2019-04-23T15:54:02.853Z,42.54
2019-04-23T16:03:45.294Z,41.97
2019-04-23T16:09:06.339Z,42.79
2019-04-23T16:14:22.801Z,42.96
2019-04-23T16:19:52.918Z,43.36
2019-04-23T16:25:00.987Z,43.14
2019-04-23T16:30:15.956Z,43.77
2019-04-23T16:40:31.622Z,44.11
2019-04-23T16:45:36.853Z,44.19
2019-04-23T16:50:56.524Z,43.83
2019-04-23T16:55:50.057Z,43.85
2019-04-23T17:06:04.018Z,44.37
2019-04-23T17:21:22.248Z,43.58
2019-04-23T17:42:00.147Z,44.98
2019-04-23T17:46:58.957Z,44.92
2019-04-23T17:52:17.110Z,44.68
2019-04-23T17:57:18.739Z,45.15
2019-04-23T18:07:38.049Z,46.83
2019-04-23T18:33:45.087Z,49.18
2019-04-23T18:38:22.880Z,49.78
2019-04-23T18:43:43.135Z,50.41
2019-04-23T18:48:40.625Z,50.79
2019-04-23T18:53:40.651Z,51.03
2019-04-23T18:58:50.350Z,51.99
2019-04-23T19:04:17.502Z,52.41
2019-04-23T19:09:23.848Z,52.65
2019-04-23T19:14:35.199Z,53.17
2019-04-23T19:19:33.578Z,53.71
2019-04-23T19:24:48.473Z,53.74
2019-04-23T19:29:59.924Z,54.40
2019-04-23T19:35:09.634Z,54.65
2019-04-23T19:39:51.891Z,54.95
2019-04-23T19:44:54.113Z,55.42
2019-04-23T19:50:03.829Z,55.83
2019-04-23T19:55:11.932Z,56.31
2019-04-23T20:00:53.450Z,56.49
2019-04-23T20:05:30.998Z,56.66
2019-04-23T20:10:44.531Z,57.11
2019-04-23T20:15:55.148Z,57.16
2019-04-23T20:20:49.702Z,58.14
2019-04-23T20:26:12.104Z,58.74
2019-04-23T20:36:22.071Z,59.31
2019-04-23T20:41:35.547Z,59.18
2019-04-23T20:46:33.399Z,59.94
2019-04-23T20:51:41.323Z,60.01
2019-04-23T20:56:56.097Z,60.35
2019-04-23T21:02:21.677Z,60.52
2019-04-23T21:07:22.763Z,60.91
2019-04-23T21:12:35.360Z,61.32
2019-04-23T21:17:26.111Z,61.33
2019-04-23T21:22:17.384Z,61.95
2019-04-23T21:27:57.468Z,61.95
2019-04-23T21:43:38.820Z,61.90
2019-04-23T21:48:43.367Z,62.20
2019-04-23T21:53:44.300Z,62.25
2019-04-23T21:58:53.112Z,62.36
2019-04-23T22:04:06.850Z,62.34
2019-04-23T22:14:04.138Z,62.89
2019-04-23T22:19:13.919Z,62.36
2019-04-23T22:24:07.256Z,62.10
2019-04-23T22:34:22.273Z,63.04
2019-04-23T22:39:41.905Z,62.72
2019-04-23T22:50:02.656Z,63.16
2019-04-23T22:55:01.974Z,63.08
2019-04-23T23:11:24.667Z,63.51
2019-04-23T23:16:29.857Z,63.78
2019-04-23T23:21:43.089Z,64.01
2019-04-23T23:26:51.562Z,64.20
2019-04-23T23:37:07.190Z,64.58
2019-04-23T23:41:56.341Z,64.32
2019-04-23T23:47:08.098Z,64.29
2019-04-23T23:52:04.740Z,65.03
